Time;durP1;ratioP1;P1;durP2;ratioP2;P2;SDS_P1;SDS_P2;PMS_P1;PMS_P2;Temp;Humidity;BMP_temperature;BMP_pressure;BME280_temperature;BME280_humidity;BME280_pressure;Samples;Min_cycle;Max_cycle;Signal;HPM_P1;HPM_P2
2022/01/14 00:00:06;;;;;;;30.53;27.90;;;;;;;23.03;21.26;96309.28;7297799;19;139196;-68
2022/01/14 00:02:31;;;;;;;30.00;27.40;;;;;;;23.03;20.75;96298.63;7286799;19;139316;-68
2022/01/14 00:04:57;;;;;;;29.90;27.20;;;;;;;23.04;21.07;96305.56;7300336;19;137688;-68
2022/01/14 00:07:25;;;;;;;33.10;30.27;;;;;;;23.03;20.99;96295.97;7297751;19;136511;-68
2022/01/14 00:09:50;;;;;;;32.33;29.43;;;;;;;23.03;20.76;96299.44;7300400;19;136941;-68
2022/01/14 00:12:23;;;;;;;33.47;30.47;;;;;;;23.02;20.89;96289.84;7299837;19;137651;-68
2022/01/14 00:15:12;;;;;;;32.43;29.53;;;;;;;23.02;21.21;96297.03;7293378;19;138519;-68
2022/01/14 00:17:38;;;;;;;31.63;28.90;;;;;;;23.02;21.29;96315.69;7300621;19;136944;-68
2022/01/14 00:20:04;;;;;;;29.73;27.23;;;;;;;23.02;21.35;96313.84;7300079;19;137450;-68
2022/01/14 00:22:30;;;;;;;31.40;28.70;;;;;;;23.01;21.31;96309.56;7297283;19;139053;-68
2022/01/14 00:35:20;;;;;;;32.10;29.20;;;;;;;23.01;21.36;96330.06;7293744;19;136799;-69
2022/01/14 00:37:46;;;;;;;33.20;30.30;;;;;;;23.01;20.91;96333.56;7291488;19;136901;-70
2022/01/14 00:40:11;;;;;;;31.70;28.77;;;;;;;23.01;20.64;96332.72;7296284;19;139376;-70
2022/01/14 00:42:37;;;;;;;32.80;30.00;;;;;;;23.00;21.24;96331.13;7299393;19;138099;-69
2022/01/14 00:45:07;;;;;;;32.43;29.63;;;;;;;23.01;20.66;96317.56;7298002;19;137258;-69
2022/01/14 00:47:34;;;;;;;31.73;29.03;;;;;;;23.00;21.27;96317.81;7286245;19;137921;-69
2022/01/14 00:50:00;;;;;;;33.30;30.40;;;;;;;23.00;20.45;96321.28;7298576;19;137338;-69
2022/01/14 00:52:26;;;;;;;31.40;28.60;;;;;;;23.00;20.59;96320.47;7297815;19;137700;-68
2022/01/14 00:54:51;;;;;;;32.63;29.67;;;;;;;23.00;21.10;96321.28;7297924;19;137587;-69
2022/01/14 00:57:28;;;;;;;33.43;30.47;;;;;;;22.99;20.74;96330.34;7296051;19;136930;-69
2022/01/14 00:59:54;;;;;;;30.90;28.10;;;;;;;22.99;21.27;96327.69;7296981;19;137631;-69
2022/01/14 01:02:20;;;;;;;32.13;29.23;;;;;;;22.99;21.21;96330.34;7296773;19;136981;-69
2022/01/14 01:04:45;;;;;;;31.40;28.73;;;;;;;22.99;20.94;96332.22;7298142;19;137522;-69
2022/01/14 01:07:12;;;;;;;31.07;28.37;;;;;;;22.99;20.77;96334.88;7294106;19;137118;-69
2022/01/14 01:09:41;;;;;;;31.77;28.97;;;;;;;22.97;20.75;96326.38;7286534;19;137635;-69
2022/01/14 01:14:52;;;;;;;31.07;28.37;;;;;;;22.97;20.44;96311.16;7297689;19;138634;-67
2022/01/14 01:17:18;;;;;;;31.70;28.90;;;;;;;22.98;21.03;96302.09;7296184;19;136831;-67
2022/01/14 01:19:44;;;;;;;32.40;29.60;;;;;;;22.98;20.74;96306.63;7286292;19;137398;-68
2022/01/14 01:22:10;;;;;;;30.50;27.90;;;;;;;22.97;20.44;96297.84;7296308;19;137603;-69
2022/01/14 01:24:36;;;;;;;30.73;28.03;;;;;;;22.98;20.32;96282.66;7296232;19;137075;-69
2022/01/14 01:27:08;;;;;;;31.37;28.60;;;;;;;22.98;20.99;96283.44;7294081;19;138679;-69
2022/01/14 01:32:07;;;;;;;30.87;28.10;;;;;;;22.97;20.72;96279.19;7285508;19;137308;-69
2022/01/14 01:34:33;;;;;;;30.03;27.43;;;;;;;22.99;20.66;96284.22;7296949;19;136978;-70
2022/01/14 01:37:01;;;;;;;32.10;29.23;;;;;;;22.98;20.32;96285.31;7297288;19;136923;-69
2022/01/14 01:39:29;;;;;;;31.13;28.37;;;;;;;22.98;20.76;96286.09;7298757;19;137667;-70
2022/01/14 01:42:00;;;;;;;29.80;27.30;;;;;;;23.00;20.90;96275.16;7285521;19;137307;-69
2022/01/14 01:44:28;;;;;;;30.37;27.77;;;;;;;22.99;20.93;96274.38;7296568;19;136930;-69
2022/01/14 01:46:55;;;;;;;29.73;27.23;;;;;;;23.00;20.77;96261.84;7300618;19;138715;-70
2022/01/14 01:49:24;;;;;;;29.13;26.63;;;;;;;23.00;20.86;96272.50;7304451;19;137026;-69
2022/01/14 01:51:51;;;;;;;29.63;27.03;;;;;;;22.98;20.44;96256.78;7303653;19;137060;-69
2022/01/14 01:54:18;;;;;;;29.60;27.00;;;;;;;22.99;21.13;96260.25;7292766;19;136810;-68
2022/01/14 01:56:44;;;;;;;29.10;26.50;;;;;;;22.99;20.83;96262.91;7303566;19;137465;-69
2022/01/14 01:59:11;;;;;;;29.93;27.33;;;;;;;22.99;20.22;96269.03;7301281;19;138970;-69
2022/01/14 02:01:41;;;;;;;28.43;25.93;;;;;;;22.99;20.66;96257.59;7303471;19;137403;-70
2022/01/14 02:04:07;;;;;;;29.97;27.37;;;;;;;22.99;20.24;96250.38;7293081;19;136969;-69
2022/01/14 02:06:34;;;;;;;29.30;26.77;;;;;;;22.99;20.34;96246.91;7301772;19;136982;-70
2022/01/14 02:08:59;;;;;;;28.60;26.20;;;;;;;22.99;21.11;96244.25;7303941;19;137353;-69
2022/01/14 02:11:25;;;;;;;28.37;25.97;;;;;;;22.99;20.50;96242.38;7304383;19;137455;-68
2022/01/14 02:13:54;;;;;;;29.30;26.70;;;;;;;22.99;20.48;96233.59;7300662;19;138677;-69
2022/01/14 02:19:11;;;;;;;29.80;27.20;;;;;;;22.98;20.48;96232.00;7303209;19;136798;-68
2022/01/14 02:26:52;;;;;;;28.27;25.77;;;;;;;22.97;20.72;96214.41;7291914;19;138462;-65
2022/01/14 02:29:19;;;;;;;28.03;25.63;;;;;;;22.97;20.95;96214.41;7299289;19;140473;-67
2022/01/14 02:31:45;;;;;;;26.70;24.40;;;;;;;22.98;20.72;96213.34;7303003;19;137410;-68
2022/01/14 02:34:12;;;;;;;26.87;24.60;;;;;;;22.97;20.77;96209.88;7301562;19;136973;-70
2022/01/14 02:36:40;;;;;;;26.73;24.53;;;;;;;22.97;20.08;96207.22;7293541;19;136960;-68
2022/01/14 02:39:07;;;;;;;26.63;24.33;;;;;;;22.96;20.21;96213.63;7302801;19;137764;-68
2022/01/14 02:41:36;;;;;;;25.43;23.10;;;;;;;22.96;20.58;96213.63;7302992;19;137439;-70
2022/01/14 02:44:09;;;;;;;27.47;25.07;;;;;;;22.96;20.51;96210.16;7301851;19;136876;-69
2022/01/14 02:46:48;;;;;;;26.07;23.73;;;;;;;22.96;20.79;96208.28;7301105;19;136935;-68
2022/01/14 02:49:14;;;;;;;26.63;24.40;;;;;;;22.96;20.29;96207.50;7291275;19;138654;-67
2022/01/14 02:51:39;;;;;;;25.93;23.67;;;;;;;22.96;20.29;96210.97;7302379;19;138099;-67
2022/01/14 02:54:14;;;;;;;26.30;24.07;;;;;;;22.95;20.94;96192.59;7300705;19;138244;-69
2022/01/14 02:56:43;;;;;;;26.73;24.50;;;;;;;22.95;20.84;96193.38;7301579;19;136930;-67
2022/01/14 02:59:10;;;;;;;27.70;25.30;;;;;;;22.95;20.78;96196.03;7288228;19;137695;-69
2022/01/14 03:01:37;;;;;;;28.17;25.77;;;;;;;22.94;20.22;96185.66;7300924;19;137492;-69
2022/01/14 03:04:04;;;;;;;26.33;24.10;;;;;;;22.93;20.36;96182.19;7302252;19;137948;-69
2022/01/14 03:06:30;;;;;;;26.57;24.27;;;;;;;22.94;20.43;96178.47;7299217;19;136602;-68
2022/01/14 03:08:59;;;;;;;27.57;25.27;;;;;;;22.93;20.10;96174.22;7301275;19;137417;-68
2022/01/14 03:11:39;;;;;;;26.50;24.13;;;;;;;22.91;20.07;96173.69;7292277;19;138849;-69
2022/01/14 03:14:05;;;;;;;26.70;24.47;;;;;;;22.92;20.70;96169.94;7300480;19;136980;-68
2022/01/14 03:16:37;;;;;;;27.03;24.73;;;;;;;22.91;20.42;96163.03;7302588;19;137096;-67
2022/01/14 03:19:10;;;;;;;26.50;24.17;;;;;;;22.93;20.36;96166.22;7299891;19;139045;-67
2022/01/14 03:21:42;;;;;;;24.17;22.17;;;;;;;22.91;20.85;96163.03;7291163;19;137906;-68
2022/01/14 03:26:54;;;;;;;25.00;22.90;;;;;;;22.92;20.52;96153.97;7300401;19;137351;-68
2022/01/14 03:29:20;;;;;;;24.03;21.93;;;;;;;22.92;20.36;96140.63;7297615;19;137685;-69
2022/01/14 03:31:46;;;;;;;23.70;21.70;;;;;;;22.94;20.60;96138.50;7289558;19;137561;-68
2022/01/14 03:34:13;;;;;;;22.80;20.90;;;;;;;22.95;20.09;96140.06;7299596;19;137073;-70
2022/01/14 03:36:38;;;;;;;23.80;21.77;;;;;;;22.96;20.64;96140.88;7299741;19;136884;-67
2022/01/14 03:39:05;;;;;;;23.37;21.37;;;;;;;22.97;20.60;96140.59;7300967;19;137965;-66
2022/01/14 03:41:31;;;;;;;23.90;21.60;;;;;;;22.99;20.24;96132.31;7300011;19;137001;-67
2022/01/14 03:43:56;;;;;;;24.37;22.23;;;;;;;22.99;20.65;96134.97;7288976;19;137049;-68
2022/01/14 03:46:22;;;;;;;21.80;20.00;;;;;;;22.98;20.60;96123.53;7300272;19;136858;-68
2022/01/14 03:48:48;;;;;;;22.47;20.50;;;;;;;22.99;20.04;96122.44;7297953;19;137473;-65
2022/01/14 03:51:13;;;;;;;23.70;21.37;;;;;;;23.00;20.33;96124.03;7297208;19;139734;-70
2022/01/14 03:53:39;;;;;;;22.67;20.77;;;;;;;23.02;20.30;96121.91;7295103;19;138898;-67
2022/01/14 03:56:05;;;;;;;23.00;21.00;;;;;;;23.01;20.66;96120.31;7292635;19;136916;-68
2022/01/14 03:58:31;;;;;;;24.00;22.00;;;;;;;23.01;19.99;96125.66;7300451;19;136792;-67
2022/01/14 04:00:56;;;;;;;22.33;20.40;;;;;;;23.02;20.34;96137.91;7301858;19;137474;-66
2022/01/14 04:03:22;;;;;;;23.33;21.30;;;;;;;23.04;20.11;96138.44;7302036;19;137854;-71
2022/01/14 04:05:48;;;;;;;23.17;21.00;;;;;;;23.03;20.20;96144.84;7290872;19;138297;-67
2022/01/14 04:08:13;;;;;;;23.23;21.20;;;;;;;23.03;20.55;96144.03;7300963;19;137179;-68
2022/01/14 04:10:39;;;;;;;22.23;20.27;;;;;;;23.01;20.20;96131.00;7301846;19;137427;-69
2022/01/14 04:13:12;;;;;;;20.37;18.67;;;;;;;23.09;20.00;96132.25;7302889;19;136866;-68
2022/01/14 04:15:38;;;;;;;19.87;18.17;;;;;;;23.14;20.05;96123.41;7301923;19;137019;-69
2022/01/14 04:18:06;;;;;;;19.83;18.03;;;;;;;23.18;20.51;96108.44;7290591;19;140902;-69
2022/01/14 04:20:32;;;;;;;20.40;18.70;;;;;;;23.05;20.86;96107.22;7301018;19;138507;-69
2022/01/14 04:22:58;;;;;;;18.63;17.03;;;;;;;22.95;21.00;96100.09;7301677;19;138293;-68
2022/01/14 04:25:23;;;;;;;17.30;15.77;;;;;;;22.87;20.87;96098.03;7300296;19;138092;-69
2022/01/14 04:27:50;;;;;;;16.60;15.10;;;;;;;22.84;20.76;96106.56;7287658;19;139231;-68
2022/01/14 04:30:16;;;;;;;16.23;14.80;;;;;;;22.81;20.48;96110.56;7305562;19;139093;-68
2022/01/14 04:32:41;;;;;;;16.10;14.80;;;;;;;22.80;20.72;96111.63;7307580;19;136705;-67
2022/01/14 04:35:07;;;;;;;15.20;14.00;;;;;;;22.77;20.94;96119.41;7304534;19;136860;-65
2022/01/14 04:37:33;;;;;;;15.40;14.03;;;;;;;22.75;21.34;96117.00;7303277;19;139637;-68
2022/01/14 04:39:58;;;;;;;16.10;14.70;;;;;;;22.71;20.64;96110.66;7293183;19;137356;-72
2022/01/14 04:42:25;;;;;;;15.67;14.10;;;;;;;22.68;20.66;96105.88;7302345;19;136993;-72
2022/01/14 04:44:54;;;;;;;15.63;13.33;;;;;;;22.66;21.34;96110.66;7302410;19;137761;-68
2022/01/14 04:47:31;;;;;;;15.87;14.37;;;;;;;22.63;20.75;96107.75;7287865;19;139387;-69
2022/01/14 04:49:57;;;;;;;17.60;14.07;;;;;;;22.68;21.43;96099.75;7282219;19;137988;-69
2022/01/14 04:52:23;;;;;;;14.47;13.17;;;;;;;22.73;21.29;96102.38;7293329;19;137632;-71
2022/01/14 04:54:49;;;;;;;15.70;14.20;;;;;;;22.76;20.99;96102.59;7291197;19;137158;-70
2022/01/14 04:57:16;;;;;;;15.70;14.40;;;;;;;22.75;21.24;96101.03;7291221;19;137348;-69
2022/01/14 04:59:46;;;;;;;16.87;15.37;;;;;;;22.83;21.20;96109.50;7284076;19;137456;-69
2022/01/14 05:02:12;;;;;;;15.80;14.40;;;;;;;22.84;21.75;96109.22;7289244;19;137216;-66
2022/01/14 05:04:39;;;;;;;17.07;15.57;;;;;;;22.80;22.53;96092.19;7289832;19;137280;-66
2022/01/14 05:07:04;;;;;;;16.93;15.00;;;;;;;22.79;22.23;96085.28;7291335;19;137571;-67
2022/01/14 05:09:37;;;;;;;16.43;14.90;;;;;;;22.80;22.63;96084.19;7291649;19;137600;-65
2022/01/14 05:12:09;;;;;;;15.93;14.50;;;;;;;22.83;21.95;96081.00;7276993;19;138303;-67
2022/01/14 05:14:34;;;;;;;16.07;14.50;;;;;;;22.85;22.48;96073.53;7290953;19;137478;-68
2022/01/14 05:17:00;;;;;;;15.80;14.30;;;;;;;22.87;22.26;96074.06;7291196;19;137442;-67
2022/01/14 05:19:26;;;;;;;16.77;15.20;;;;;;;22.89;21.98;96082.56;7286396;19;137695;-67
2022/01/14 05:21:51;;;;;;;15.73;14.13;;;;;;;22.93;22.10;96078.25;7263514;19;138017;-68
2022/01/14 05:24:17;;;;;;;15.50;13.90;;;;;;;22.96;22.13;96080.38;7289487;19;138580;-70
2022/01/14 05:26:43;;;;;;;14.80;13.40;;;;;;;23.03;21.96;96083.53;7290904;19;137899;-71
2022/01/14 05:29:08;;;;;;;14.73;13.40;;;;;;;23.11;21.67;96082.91;7289917;19;137484;-72
2022/01/14 05:32:05;;;;;;;15.13;13.83;;;;;;;23.16;21.56;96087.41;7288352;19;138692;-72
2022/01/14 05:34:32;;;;;;;14.60;13.30;;;;;;;23.20;21.19;96096.44;7279853;19;137688;-71
2022/01/14 05:36:58;;;;;;;14.83;13.60;;;;;;;23.21;21.32;96087.38;7287813;19;139777;-67
2022/01/14 05:39:23;;;;;;;13.57;12.47;;;;;;;23.23;20.69;96089.75;7288860;19;137150;-67
2022/01/14 05:41:50;;;;;;;14.23;13.03;;;;;;;23.24;20.83;96086.00;7280502;19;139060;-70
2022/01/14 05:44:15;;;;;;;13.33;12.23;;;;;;;23.24;21.15;96081.47;7276711;19;137197;-68
2022/01/14 05:46:41;;;;;;;14.07;12.87;;;;;;;23.24;20.90;96086.00;7287547;19;137046;-66
2022/01/14 05:49:06;;;;;;;12.90;11.70;;;;;;;23.27;20.75;96077.44;7285837;19;137986;-66
2022/01/14 05:51:32;;;;;;;14.10;12.87;;;;;;;23.28;20.46;96071.81;7283213;19;138448;-68
2022/01/14 05:53:58;;;;;;;14.47;13.27;;;;;;;23.30;20.49;96069.66;7289507;19;137331;-69
2022/01/14 05:56:23;;;;;;;12.97;11.87;;;;;;;23.29;20.44;96072.63;7275887;19;139186;-67
2022/01/14 05:58:49;;;;;;;13.80;12.63;;;;;;;23.29;20.49;96076.09;7289761;19;137471;-67
2022/01/14 06:01:14;;;;;;;14.30;13.10;;;;;;;23.28;19.77;96071.81;7284667;19;138080;-66
2022/01/14 06:03:40;;;;;;;14.30;13.00;;;;;;;23.29;20.49;96076.09;7289214;19;137416;-67
2022/01/14 06:06:06;;;;;;;14.80;13.60;;;;;;;23.31;20.49;96065.13;7276042;19;139355;-67
2022/01/14 06:08:32;;;;;;;14.50;13.37;;;;;;;23.32;20.25;96064.84;7284962;19;139976;-68
2022/01/14 06:10:57;;;;;;;15.80;14.30;;;;;;;23.32;20.55;96072.06;7283684;19;137396;-68
2022/01/14 06:13:23;;;;;;;14.93;13.63;;;;;;;23.31;20.60;96071.25;7288474;19;137437;-67
2022/01/14 06:15:48;;;;;;;14.40;13.30;;;;;;;23.32;20.45;96066.72;7288461;19;137960;-70
2022/01/14 06:18:14;;;;;;;15.70;14.40;;;;;;;23.33;20.34;96062.97;7278363;19;137609;-66
2022/01/14 06:20:39;;;;;;;16.83;15.33;;;;;;;23.24;20.86;96072.69;7283728;19;138407;-69
2022/01/14 06:23:05;;;;;;;16.50;15.00;;;;;;;23.24;20.23;96059.34;7286345;19;137351;-68
2022/01/14 06:25:30;;;;;;;16.70;14.90;;;;;;;23.27;20.03;96061.44;7284734;19;138044;-67
2022/01/14 06:27:56;;;;;;;16.63;14.93;;;;;;;23.29;20.19;96069.94;7273653;19;137398;-69
2022/01/14 06:30:22;;;;;;;16.60;15.20;;;;;;;23.30;20.15;96066.22;7286641;19;137547;-66
2022/01/14 06:32:55;;;;;;;16.17;14.77;;;;;;;23.29;20.29;96060.09;7283854;19;137714;-67
2022/01/14 06:35:21;;;;;;;16.77;15.27;;;;;;;23.27;20.49;96053.44;7295750;19;137403;-64
2022/01/14 06:37:47;;;;;;;16.53;15.03;;;;;;;23.23;20.59;96049.75;7291613;19;139350;-67
2022/01/14 06:40:13;;;;;;;17.97;16.17;;;;;;;23.25;20.35;96052.94;7280045;19;138592;-69
2022/01/14 06:42:38;;;;;;;17.93;16.40;;;;;;;23.26;20.37;96044.66;7289864;19;137318;-67
2022/01/14 06:45:06;;;;;;;17.70;16.10;;;;;;;23.27;19.83;96054.25;7293328;19;137521;-67
2022/01/14 06:47:32;;;;;;;18.43;16.83;;;;;;;23.28;20.33;96055.03;7293113;19;137683;-68
2022/01/14 06:49:58;;;;;;;17.87;16.37;;;;;;;23.29;20.17;96056.63;7284267;19;138351;-67
2022/01/14 06:52:24;;;;;;;18.10;16.50;;;;;;;23.30;19.71;96039.53;7290428;19;137036;-68
2022/01/14 06:54:50;;;;;;;18.00;16.40;;;;;;;23.31;19.77;96047.25;7293480;19;137318;-67
2022/01/14 06:57:16;;;;;;;18.43;16.83;;;;;;;23.30;20.04;96045.66;7291394;19;139112;-68
2022/01/14 06:59:42;;;;;;;18.63;17.03;;;;;;;23.32;20.07;96034.72;7293526;19;137078;-68
2022/01/14 07:02:09;;;;;;;18.23;16.63;;;;;;;23.32;19.80;96029.38;7279333;19;137654;-68
2022/01/14 07:04:35;;;;;;;19.60;17.90;;;;;;;23.31;20.24;96025.94;7291289;19;139104;-69
2022/01/14 07:07:01;;;;;;;18.83;17.10;;;;;;;23.33;19.72;96020.31;7290309;19;139281;-70
2022/01/14 07:09:29;;;;;;;18.40;16.90;;;;;;;23.33;19.94;96020.31;7292325;19;137724;-69
2022/01/14 07:11:57;;;;;;;18.33;16.60;;;;;;;23.33;19.72;96009.63;7280442;19;140154;-67
2022/01/14 07:14:23;;;;;;;18.30;16.80;;;;;;;23.33;20.17;96013.09;7289997;19;139041;-67
2022/01/14 07:16:49;;;;;;;18.37;16.77;;;;;;;23.33;20.12;96001.63;7293081;19;137283;-65
2022/01/14 07:19:17;;;;;;;18.40;16.90;;;;;;;23.33;20.27;96005.09;7293704;19;136838;-68
2022/01/14 07:21:43;;;;;;;19.00;17.40;;;;;;;23.33;20.03;95998.97;7286992;19;137851;-68
2022/01/14 07:24:10;;;;;;;18.83;17.23;;;;;;;23.35;20.12;96005.63;7283310;19;138623;-68
2022/01/14 07:26:36;;;;;;;17.07;15.60;;;;;;;23.34;19.61;96005.91;7291340;19;138241;-69
2022/01/14 07:29:02;;;;;;;19.40;17.67;;;;;;;23.35;19.64;96007.50;7289427;19;138800;-71
2022/01/14 07:31:27;;;;;;;19.03;17.30;;;;;;;23.36;19.75;95999.22;7290397;19;138282;-67
2022/01/14 07:33:53;;;;;;;20.70;18.80;;;;;;;23.36;20.06;95998.44;7286685;19;138298;-68
2022/01/14 07:36:18;;;;;;;19.53;17.80;;;;;;;23.36;19.59;96012.56;7289712;19;136963;-68
2022/01/14 07:38:44;;;;;;;19.17;17.40;;;;;;;23.39;19.67;96005.84;7292159;19;137180;-67
2022/01/14 07:41:09;;;;;;;18.60;17.00;;;;;;;23.38;19.71;95999.72;7287688;19;138358;-68
2022/01/14 07:43:36;;;;;;;18.37;16.87;;;;;;;23.38;20.15;96005.06;7291009;19;137711;-68
2022/01/14 07:46:05;;;;;;;17.83;16.33;;;;;;;23.37;19.51;95994.69;7278117;19;139104;-68
2022/01/14 07:48:32;;;;;;;18.57;16.90;;;;;;;23.37;19.94;95986.69;7291118;19;137205;-67
2022/01/14 07:50:58;;;;;;;18.37;16.80;;;;;;;23.39;20.13;95981.84;7285626;19;137369;-69
2022/01/14 07:53:23;;;;;;;17.90;16.40;;;;;;;23.37;19.99;95982.16;7290747;19;139359;-67
2022/01/14 07:55:49;;;;;;;17.53;16.03;;;;;;;23.39;19.86;95976.53;7290302;19;137609;-69
2022/01/14 07:58:15;;;;;;;18.10;16.50;;;;;;;23.39;19.73;95984.53;7281930;19;138739;-69
2022/01/14 08:00:41;;;;;;;17.67;16.27;;;;;;;23.38;20.16;95981.06;7290046;19;137414;-68
2022/01/14 08:03:07;;;;;;;18.23;16.73;;;;;;;23.38;19.90;95975.72;7285568;19;139088;-69
2022/01/14 08:05:33;;;;;;;17.40;15.90;;;;;;;23.38;19.60;95977.59;7291789;19;136982;-68
2022/01/14 08:08:03;;;;;;;17.93;16.53;;;;;;;23.38;19.84;95972.28;7278594;19;137584;-68
2022/01/14 08:10:29;;;;;;;17.23;15.77;;;;;;;23.39;19.54;95973.84;7291516;19;137040;-67
2022/01/14 08:12:55;;;;;;;17.53;15.93;;;;;;;23.38;19.57;95970.41;7285671;19;137559;-68
2022/01/14 08:15:20;;;;;;;18.00;16.40;;;;;;;23.40;19.61;95968.25;7292358;19;137721;-67
2022/01/14 08:17:46;;;;;;;17.80;16.17;;;;;;;23.39;19.74;95960.53;7291470;19;137691;-67
2022/01/14 08:20:12;;;;;;;19.37;17.67;;;;;;;23.39;20.27;95963.19;7281585;19;137338;-69
2022/01/14 08:22:37;;;;;;;18.43;16.73;;;;;;;23.38;20.26;95959.72;7282824;19;139711;-69
2022/01/14 08:25:03;;;;;;;17.23;15.70;;;;;;;23.39;20.12;95945.31;7288021;19;139051;-68
2022/01/14 08:27:28;;;;;;;17.60;16.00;;;;;;;23.40;19.71;95946.91;7290622;19;137217;-67
2022/01/14 08:29:54;;;;;;;17.40;16.00;;;;;;;23.43;20.08;95953.53;7280107;19;137997;-68
2022/01/14 08:32:21;;;;;;;16.97;15.40;;;;;;;23.42;19.89;95950.06;7283958;19;139071;-68
2022/01/14 08:34:47;;;;;;;17.47;15.73;;;;;;;23.42;19.86;95934.06;7292122;19;136982;-68
2022/01/14 08:37:13;;;;;;;17.77;16.17;;;;;;;23.44;19.78;95947.13;7291469;19;137592;-68
2022/01/14 08:39:39;;;;;;;16.70;15.20;;;;;;;23.46;20.01;95933.50;7291801;19;137420;-67
2022/01/14 08:42:08;;;;;;;17.63;15.97;;;;;;;23.46;19.98;95920.94;7276981;19;138328;-66
2022/01/14 08:44:36;;;;;;;16.70;15.27;;;;;;;23.47;20.33;95919.06;7292092;19;137535;-66
2022/01/14 08:47:02;;;;;;;16.87;15.37;;;;;;;23.46;19.96;95925.50;7292500;19;137852;-67
2022/01/14 08:49:28;;;;;;;18.00;16.17;;;;;;;23.46;20.26;95920.94;7289862;19;137726;-67
2022/01/14 08:51:53;;;;;;;15.37;13.97;;;;;;;23.47;20.18;95921.75;7271620;19;139227;-69
2022/01/14 08:54:19;;;;;;;17.17;15.67;;;;;;;23.47;19.84;95929.75;7292483;19;138040;-66
2022/01/14 08:56:45;;;;;;;16.27;14.97;;;;;;;23.46;20.32;95922.81;7290483;19;137148;-67
2022/01/14 08:59:11;;;;;;;16.83;15.33;;;;;;;23.47;19.79;95922.53;7294240;19;137013;-66
2022/01/14 09:01:40;;;;;;;16.43;15.07;;;;;;;23.47;20.04;95909.19;7291538;19;139153;-65
2022/01/14 09:04:05;;;;;;;16.33;14.83;;;;;;;23.48;20.06;95908.13;7285818;19;138432;-65
2022/01/14 09:06:31;;;;;;;15.83;14.43;;;;;;;23.47;20.21;95917.19;7298249;19;137628;-65
2022/01/14 09:08:56;;;;;;;15.53;14.23;;;;;;;23.47;20.68;95911.88;7294815;19;137388;-66
2022/01/14 09:11:22;;;;;;;14.43;13.23;;;;;;;23.50;20.70;95910.50;7290874;19;137668;-67
2022/01/14 09:13:48;;;;;;;16.33;14.90;;;;;;;23.45;20.82;95900.69;7283396;19;138135;-67
2022/01/14 09:16:13;;;;;;;13.97;12.77;;;;;;;23.44;20.92;95903.66;7294280;19;137464;-66
2022/01/14 09:18:39;;;;;;;15.40;14.00;;;;;;;23.45;20.23;95895.38;7290610;19;137336;-67
2022/01/14 09:21:04;;;;;;;15.07;13.67;;;;;;;23.47;20.40;95892.41;7286760;19;137834;-67
2022/01/14 09:23:33;;;;;;;16.30;14.90;;;;;;;23.49;20.67;95890.25;7292104;19;137586;-68
2022/01/14 09:25:58;;;;;;;14.40;13.20;;;;;;;23.49;20.81;95891.03;7276574;19;138515;-67
2022/01/14 09:28:24;;;;;;;16.30;14.80;;;;;;;23.49;20.39;95882.25;7289664;19;138523;-67
2022/01/14 09:30:49;;;;;;;14.93;13.43;;;;;;;23.49;20.22;95877.69;7287806;19;137280;-67
2022/01/14 09:33:17;;;;;;;14.70;13.50;;;;;;;23.52;20.88;95863.81;7290435;19;137123;-67
2022/01/14 09:35:45;;;;;;;14.73;13.43;;;;;;;23.50;20.29;95860.59;7279155;19;137252;-67
2022/01/14 09:38:10;;;;;;;14.13;12.83;;;;;;;23.52;20.47;95847.81;7291960;19;136831;-67
2022/01/14 09:40:41;;;;;;;14.07;12.90;;;;;;;23.51;20.83;95848.06;7288887;19;139091;-66
2022/01/14 09:43:07;;;;;;;14.70;13.30;;;;;;;23.35;20.65;95866.19;7291481;19;137198;-67
2022/01/14 09:45:34;;;;;;;14.27;13.10;;;;;;;23.28;21.52;95852.38;7295357;19;136987;-70
2022/01/14 09:48:00;;;;;;;14.30;12.97;;;;;;;23.37;21.60;95850.69;7280123;19;136999;-67
2022/01/14 09:50:26;;;;;;;14.17;12.97;;;;;;;23.43;21.01;95849.53;7290382;19;137902;-67
2022/01/14 09:52:52;;;;;;;13.97;12.67;;;;;;;23.47;21.44;95844.41;7285780;19;137558;-66
2022/01/14 09:55:20;;;;;;;14.20;13.00;;;;;;;23.49;21.02;95829.69;7292823;19;136888;-67
2022/01/14 09:57:45;;;;;;;13.87;12.60;;;;;;;23.52;20.91;95826.47;7279911;19;137264;-67
2022/01/14 10:00:11;;;;;;;13.00;11.90;;;;;;;23.52;20.97;95823.81;7292120;19;137198;-66
2022/01/14 10:02:40;;;;;;;13.37;12.10;;;;;;;23.54;20.95;95808.28;7289304;19;137646;-68
2022/01/14 10:05:09;;;;;;;13.17;11.97;;;;;;;23.54;21.47;95813.63;7293019;19;137035;-67
2022/01/14 10:07:35;;;;;;;12.47;11.27;;;;;;;23.54;21.48;95791.50;7296420;19;137091;-68
2022/01/14 10:10:21;;;;;;;12.00;10.90;;;;;;;23.52;20.96;95799.78;7286139;19;139147;-67
2022/01/14 10:12:47;;;;;;;12.20;11.20;;;;;;;23.53;21.25;95805.91;7295179;19;139768;-67
2022/01/14 10:15:15;;;;;;;11.13;10.20;;;;;;;23.55;21.17;95788.53;7298909;19;138513;-66
2022/01/14 10:17:43;;;;;;;12.13;11.13;;;;;;;23.53;21.07;95773.91;7302293;19;136989;-67
2022/01/14 10:20:11;;;;;;;11.90;10.73;;;;;;;23.54;21.59;95783.50;7292495;19;137287;-67
2022/01/14 10:22:45;;;;;;;11.30;10.40;;;;;;;23.58;21.69;95768.53;7296593;19;140892;-68
2022/01/14 10:25:18;;;;;;;11.60;10.60;;;;;;;23.63;21.43;95769.22;7298307;19;139363;-67
2022/01/14 10:27:50;;;;;;;11.70;10.77;;;;;;;23.68;21.11;95771.84;7296505;19;139665;-69
2022/01/14 10:30:21;;;;;;;10.33;9.43;;;;;;;23.67;21.42;95764.88;7289290;19;140171;-67
2022/01/14 10:32:52;;;;;;;11.13;10.13;;;;;;;23.75;21.14;95760.78;7295570;19;137396;-67
2022/01/14 10:35:20;;;;;;;10.40;9.57;;;;;;;23.77;21.33;95747.13;7299890;19;136993;-69
2022/01/14 10:37:47;;;;;;;11.30;10.40;;;;;;;23.75;21.30;95738.63;7297320;19;137052;-68
2022/01/14 10:40:16;;;;;;;10.70;9.80;;;;;;;23.72;21.19;95745.34;7296317;19;137162;-68
2022/01/14 10:42:43;;;;;;;10.30;9.50;;;;;;;23.69;21.25;95736.06;7279092;19;137819;-68
2022/01/14 10:45:21;;;;;;;9.20;8.40;;;;;;;23.73;21.52;95746.16;7296288;19;137560;-69
2022/01/14 10:47:55;;;;;;;10.20;9.30;;;;;;;23.74;21.89;95745.06;7296146;19;137074;-69
2022/01/14 10:50:34;;;;;;;10.50;9.70;;;;;;;23.72;21.66;95740.03;7292906;19;139299;-68
2022/01/14 10:53:01;;;;;;;9.80;9.00;;;;;;;23.73;21.72;95740.81;7279452;19;139252;-68
2022/01/14 10:55:51;;;;;;;9.57;8.77;;;;;;;23.71;21.92;95725.09;7292115;19;138909;-68
2022/01/14 10:58:25;;;;;;;9.50;8.80;;;;;;;23.72;21.73;95720.56;7294613;19;136904;-69
2022/01/14 11:00:56;;;;;;;9.37;8.67;;;;;;;23.72;21.80;95697.31;7292191;19;137729;-70
2022/01/14 11:03:40;;;;;;;8.93;8.23;;;;;;;23.72;21.88;95710.66;7281000;19;138220;-70
2022/01/14 11:06:29;;;;;;;8.67;7.97;;;;;;;23.73;21.46;95698.91;7291701;19;138567;-69
2022/01/14 11:09:01;;;;;;;9.10;8.30;;;;;;;23.72;21.42;95683.19;7293599;19;137370;-69
2022/01/14 11:11:29;;;;;;;9.17;8.43;;;;;;;23.70;21.93;95689.63;7287526;19;138069;-68
2022/01/14 11:13:54;;;;;;;9.13;8.33;;;;;;;23.73;21.86;95679.44;7284177;19;137540;-70
2022/01/14 11:16:20;;;;;;;9.40;8.50;;;;;;;23.72;21.74;95669.84;7293872;19;137421;-70
2022/01/14 11:18:47;;;;;;;9.57;8.77;;;;;;;23.70;22.04;95676.28;7290721;19;137260;-69
2022/01/14 11:23:58;;;;;;;8.77;8.07;;;;;;;23.69;21.59;95656.03;7293398;19;137164;-69
2022/01/14 11:26:31;;;;;;;8.03;7.40;;;;;;;23.69;21.95;95653.34;7283652;19;138217;-68
2022/01/14 11:29:04;;;;;;;8.90;8.17;;;;;;;23.68;21.57;95654.44;7290159;19;137881;-68
2022/01/14 11:31:33;;;;;;;8.37;7.70;;;;;;;23.66;22.19;95635.25;7286994;19;137410;-69
2022/01/14 11:34:01;;;;;;;8.07;7.47;;;;;;;23.66;21.64;95634.44;7291042;19;138302;-69
2022/01/14 11:36:56;;;;;;;7.90;7.30;;;;;;;23.65;21.71;95631.00;7282716;19;137943;-69
2022/01/14 11:39:31;;;;;;;8.17;7.50;;;;;;;23.64;22.22;95626.75;7292367;19;137068;-70